createdAt,value
2017-03-03T00:00:20.523Z,1010.19
2017-03-03T00:01:32.044Z,1010.18
2017-03-03T00:02:43.596Z,1010.17
2017-03-03T00:03:55.293Z,1010.15
2017-03-03T00:05:06.803Z,1010.12
2017-03-03T00:06:18.295Z,1010.17
2017-03-03T00:07:29.812Z,1010.13
2017-03-03T00:08:41.312Z,1010.15
2017-03-03T00:09:53.012Z,1010.11
2017-03-03T00:11:04.708Z,1010.11
2017-03-03T00:12:16.233Z,1010.12
2017-03-03T00:13:27.784Z,1010.11
2017-03-03T00:14:39.284Z,1010.09
2017-03-03T00:15:50.765Z,1010.04
2017-03-03T00:17:02.463Z,1010.09
2017-03-03T00:18:13.956Z,1010.04
2017-03-03T00:19:25.510Z,1010.05
2017-03-03T00:20:37.203Z,1010.08
2017-03-03T00:21:48.911Z,1010.02
2017-03-03T00:23:00.413Z,1010.02
2017-03-03T00:24:11.942Z,1010
2017-03-03T00:25:23.460Z,1009.97
2017-03-03T00:26:35.148Z,1009.95
2017-03-03T00:27:46.658Z,1009.93
2017-03-03T00:28:58.158Z,1009.91
2017-03-03T00:30:09.648Z,1009.94
2017-03-03T00:31:21.141Z,1009.9
2017-03-03T00:32:32.621Z,1009.89
2017-03-03T00:33:44.109Z,1009.89
2017-03-03T00:34:55.612Z,1009.89
2017-03-03T00:36:07.367Z,1009.88
2017-03-03T00:37:18.889Z,1009.85
2017-03-03T00:38:30.579Z,1009.85
2017-03-03T00:39:42.075Z,1009.83
2017-03-03T00:40:53.606Z,1009.86
2017-03-03T00:42:05.391Z,1009.81
2017-03-03T00:43:17.087Z,1009.8
2017-03-03T00:44:28.602Z,1009.8
2017-03-03T00:45:40.095Z,1009.78
2017-03-03T00:46:51.609Z,1009.81
2017-03-03T00:48:03.094Z,1009.75
2017-03-03T00:49:14.564Z,1009.76
2017-03-03T00:50:26.077Z,1009.77
2017-03-03T00:51:37.634Z,1009.73
2017-03-03T00:52:49.112Z,1009.73
2017-03-03T00:54:00.642Z,1009.75
2017-03-03T00:55:12.339Z,1009.73
2017-03-03T00:56:23.825Z,1009.77
2017-03-03T00:57:35.392Z,1009.78
2017-03-03T00:58:46.887Z,1009.76
2017-03-03T00:59:58.379Z,1009.75
2017-03-03T01:01:10.262Z,1009.72
2017-03-03T01:02:21.818Z,1009.73
2017-03-03T01:03:33.332Z,1009.71
2017-03-03T01:04:44.815Z,1009.71
2017-03-03T01:05:56.323Z,1009.72
2017-03-03T01:07:07.837Z,1009.73
2017-03-03T01:08:19.316Z,1009.67
2017-03-03T01:09:30.817Z,1009.71
2017-03-03T01:10:42.368Z,1009.7
2017-03-03T01:11:53.858Z,1009.69
2017-03-03T01:13:05.384Z,1009.66
2017-03-03T01:14:16.882Z,1009.68
2017-03-03T01:15:28.373Z,1009.66
2017-03-03T01:16:39.889Z,1009.65
2017-03-03T01:17:51.393Z,1009.65
2017-03-03T01:19:02.879Z,1009.71
2017-03-03T01:20:14.574Z,1009.68
2017-03-03T01:21:26.075Z,1009.66
2017-03-03T01:22:37.580Z,1009.66
2017-03-03T01:23:49.066Z,1009.64
2017-03-03T01:25:00.819Z,1009.58
2017-03-03T01:26:12.342Z,1009.59
2017-03-03T01:27:23.854Z,1009.6
2017-03-03T01:28:35.341Z,1009.62
2017-03-03T01:29:46.870Z,1009.61
2017-03-03T01:30:58.361Z,1009.6
2017-03-03T01:32:10.068Z,1009.64
2017-03-03T01:33:21.961Z,1009.63
2017-03-03T01:34:33.797Z,1009.61
2017-03-03T01:35:45.314Z,1009.6
2017-03-03T01:36:56.820Z,1009.55
2017-03-03T01:38:08.300Z,1009.57
2017-03-03T01:39:19.806Z,1009.55
2017-03-03T01:40:31.651Z,1009.56
2017-03-03T01:41:43.153Z,1009.54
2017-03-03T01:42:54.676Z,1009.51
2017-03-03T01:44:06.154Z,1009.51
2017-03-03T01:45:17.995Z,1009.48
2017-03-03T01:46:29.486Z,1009.47
2017-03-03T01:47:41.003Z,1009.47
2017-03-03T01:48:52.698Z,1009.43
2017-03-03T01:50:04.393Z,1009.43
2017-03-03T01:51:16.139Z,1009.49
2017-03-03T01:52:27.838Z,1009.4
2017-03-03T01:53:39.745Z,1009.45
2017-03-03T01:54:51.246Z,1009.38
2017-03-03T01:56:02.772Z,1009.4
2017-03-03T01:57:14.328Z,1009.4
2017-03-03T01:58:25.825Z,1009.38
2017-03-03T01:59:37.340Z,1009.36
2017-03-03T02:00:48.831Z,1009.4
2017-03-03T02:02:00.331Z,1009.35
2017-03-03T02:03:11.887Z,1009.35
2017-03-03T02:04:23.397Z,1009.3
2017-03-03T02:05:34.901Z,1009.32
2017-03-03T02:06:46.626Z,1009.3
2017-03-03T02:07:58.129Z,1009.35
2017-03-03T02:09:09.890Z,1009.36
2017-03-03T02:10:21.605Z,1009.35
2017-03-03T02:11:33.115Z,1009.41
2017-03-03T02:12:44.597Z,1009.39
2017-03-03T02:13:56.098Z,1009.35
2017-03-03T02:15:07.628Z,1009.35
2017-03-03T02:16:19.108Z,1009.38
2017-03-03T02:17:30.602Z,1009.4
2017-03-03T02:18:42.321Z,1009.38
2017-03-03T02:19:53.841Z,1009.34
2017-03-03T02:21:05.395Z,1009.33
2017-03-03T02:22:16.908Z,1009.32
2017-03-03T02:23:28.434Z,1009.33
2017-03-03T02:24:39.915Z,1009.29
2017-03-03T02:25:51.430Z,1009.32
2017-03-03T02:27:02.992Z,1009.28
2017-03-03T02:28:14.474Z,1009.3
2017-03-03T02:29:25.968Z,1009.27
2017-03-03T02:30:37.467Z,1009.27
2017-03-03T02:31:49.005Z,1009.28
2017-03-03T02:33:00.557Z,1009.29
2017-03-03T02:34:12.060Z,1009.3
2017-03-03T02:35:23.543Z,1009.26
2017-03-03T02:36:35.049Z,1009.24
2017-03-03T02:37:46.579Z,1009.21
2017-03-03T02:38:58.308Z,1009.24
2017-03-03T02:40:09.805Z,1009.23
2017-03-03T02:41:21.309Z,1009.17
2017-03-03T02:42:32.993Z,1009.15
2017-03-03T02:43:44.524Z,1009.17
2017-03-03T02:44:56.051Z,1009.15
2017-03-03T02:46:07.559Z,1009.17
2017-03-03T02:47:19.266Z,1009.11
2017-03-03T02:48:30.780Z,1009.1
2017-03-03T02:49:42.283Z,1009.05
2017-03-03T02:50:53.823Z,1009.09
2017-03-03T02:52:05.328Z,1009.08
2017-03-03T02:53:16.828Z,1009.05
2017-03-03T02:54:28.318Z,1009.02
2017-03-03T02:55:39.799Z,1009
2017-03-03T02:56:51.558Z,1008.95
2017-03-03T02:58:03.077Z,1008.97
2017-03-03T02:59:14.779Z,1008.97
2017-03-03T03:00:26.255Z,1009
2017-03-03T03:01:37.756Z,1009
2017-03-03T03:02:49.309Z,1008.96
2017-03-03T03:04:00.787Z,1008.96
2017-03-03T03:05:12.305Z,1008.93
2017-03-03T03:06:23.805Z,1008.93
2017-03-03T03:07:35.499Z,1008.93
2017-03-03T03:08:47.043Z,1008.91
2017-03-03T03:09:58.539Z,1008.88
2017-03-03T03:11:10.040Z,1008.86
2017-03-03T03:12:21.530Z,1008.82
2017-03-03T03:13:33.036Z,1008.76
2017-03-03T03:14:44.600Z,1008.74
2017-03-03T03:15:56.105Z,1008.73
2017-03-03T03:17:07.602Z,1008.73
2017-03-03T03:18:19.109Z,1008.68
2017-03-03T03:19:30.609Z,1008.72
2017-03-03T03:20:42.360Z,1008.72
2017-03-03T03:21:53.858Z,1008.75
2017-03-03T03:23:05.353Z,1008.69
2017-03-03T03:24:16.870Z,1008.72
2017-03-03T03:25:28.583Z,1008.76
2017-03-03T03:26:40.339Z,1008.7
2017-03-03T03:27:52.036Z,1008.68
2017-03-03T03:29:03.525Z,1008.69
2017-03-03T03:30:15.025Z,1008.67
2017-03-03T03:31:26.533Z,1008.69
2017-03-03T03:32:38.469Z,1008.65
2017-03-03T03:33:49.974Z,1008.61
2017-03-03T03:35:01.485Z,1008.59
2017-03-03T03:36:13.003Z,1008.55
2017-03-03T03:37:24.489Z,1008.56
2017-03-03T03:38:36.062Z,1008.51
2017-03-03T03:39:47.565Z,1008.51
2017-03-03T03:40:59.473Z,1008.51
2017-03-03T03:42:10.955Z,1008.48
2017-03-03T03:43:22.449Z,1008.45
2017-03-03T03:44:34.003Z,1008.41
2017-03-03T03:45:45.501Z,1008.47
2017-03-03T03:46:57.187Z,1008.39
2017-03-03T03:48:08.699Z,1008.45
2017-03-03T03:49:20.199Z,1008.43
2017-03-03T03:50:31.742Z,1008.39
2017-03-03T03:51:43.438Z,1008.34
2017-03-03T03:52:54.947Z,1008.29
2017-03-03T03:54:06.426Z,1008.28
2017-03-03T03:55:18.167Z,1008.24
2017-03-03T03:56:29.734Z,1008.21
2017-03-03T03:57:41.243Z,1008.24
2017-03-03T03:58:52.760Z,1008.22
2017-03-03T04:00:04.463Z,1008.19
2017-03-03T04:01:15.968Z,1008.2
2017-03-03T04:02:27.505Z,1008.26
2017-03-03T04:03:39.008Z,1008.23
2017-03-03T04:04:50.497Z,1008.24
2017-03-03T04:06:02.006Z,1008.21
2017-03-03T04:07:13.517Z,1008.18
2017-03-03T04:08:25.273Z,1008.26
2017-03-03T04:09:36.766Z,1008.26
2017-03-03T04:10:48.268Z,1008.29
2017-03-03T04:11:59.758Z,1008.28
2017-03-03T04:13:11.661Z,1008.28
2017-03-03T04:14:23.397Z,1008.28
2017-03-03T04:15:35.096Z,1008.26
2017-03-03T04:16:46.573Z,1008.25
2017-03-03T04:17:58.068Z,1008.23
2017-03-03T04:19:09.760Z,1008.24
2017-03-03T04:20:21.328Z,1008.22
2017-03-03T04:21:32.838Z,1008.2
2017-03-03T04:22:44.322Z,1008.22
2017-03-03T04:23:55.821Z,1008.15
2017-03-03T04:25:07.331Z,1008.14
2017-03-03T04:26:19.067Z,1008.15
2017-03-03T04:27:30.598Z,1008.13
2017-03-03T04:28:42.089Z,1008.09
2017-03-03T04:29:53.594Z,1008
2017-03-03T04:31:05.305Z,1007.96
2017-03-03T04:32:16.872Z,1007.99
2017-03-03T04:33:28.371Z,1007.97
2017-03-03T04:34:39.892Z,1007.96
2017-03-03T04:35:51.583Z,1007.91
2017-03-03T04:37:03.087Z,1007.9
2017-03-03T04:38:14.643Z,1007.83
2017-03-03T04:39:26.141Z,1007.82
2017-03-03T04:40:37.642Z,1007.83
2017-03-03T04:41:49.130Z,1007.82
2017-03-03T04:43:00.835Z,1007.79
2017-03-03T04:44:12.386Z,1007.79
2017-03-03T04:45:23.879Z,1007.75
2017-03-03T04:46:35.376Z,1007.71
2017-03-03T04:47:46.915Z,1007.79
2017-03-03T04:48:58.415Z,1007.8
2017-03-03T04:50:09.966Z,1007.81
2017-03-03T04:51:21.442Z,1007.74
2017-03-03T04:52:32.951Z,1007.73
2017-03-03T04:53:44.444Z,1007.69
2017-03-03T04:54:55.948Z,1007.67
2017-03-03T04:56:07.700Z,1007.73
2017-03-03T04:57:19.396Z,1007.67
2017-03-03T04:58:31.109Z,1007.66
2017-03-03T04:59:42.796Z,1007.62
2017-03-03T05:00:54.284Z,1007.61
2017-03-03T05:02:05.823Z,1007.62
2017-03-03T05:03:17.316Z,1007.63
2017-03-03T05:04:28.803Z,1007.61
2017-03-03T05:05:40.291Z,1007.61
2017-03-03T05:06:51.982Z,1007.59
2017-03-03T05:08:03.507Z,1007.57
2017-03-03T05:09:15.233Z,1007.56
2017-03-03T05:10:26.734Z,1007.53
2017-03-03T05:11:38.223Z,1007.52
2017-03-03T05:12:49.757Z,1007.55
2017-03-03T05:14:01.321Z,1007.53
2017-03-03T05:15:12.817Z,1007.53
2017-03-03T05:16:24.322Z,1007.5
2017-03-03T05:17:35.807Z,1007.48
2017-03-03T05:18:47.320Z,1007.47
2017-03-03T05:19:58.904Z,1007.49
2017-03-03T05:21:10.386Z,1007.47
2017-03-03T05:22:21.886Z,1007.45
2017-03-03T05:23:33.371Z,1007.43
2017-03-03T05:24:44.896Z,1007.4
2017-03-03T05:25:56.671Z,1007.39
2017-03-03T05:27:08.172Z,1007.4
2017-03-03T05:28:19.677Z,1007.41
2017-03-03T05:29:31.380Z,1007.39
2017-03-03T05:30:42.884Z,1007.4
2017-03-03T05:31:54.628Z,1007.33
2017-03-03T05:33:06.129Z,1007.33
2017-03-03T05:34:17.625Z,1007.31
2017-03-03T05:35:29.125Z,1007.3
2017-03-03T05:36:40.630Z,1007.28
2017-03-03T05:37:52.390Z,1007.31
2017-03-03T05:39:03.886Z,1007.28
2017-03-03T05:40:15.379Z,1007.26
2017-03-03T05:41:27.067Z,1007.27
2017-03-03T05:42:38.599Z,1007.26
2017-03-03T05:43:50.154Z,1007.28
2017-03-03T05:45:01.679Z,1007.26
2017-03-03T05:46:13.163Z,1007.26
2017-03-03T05:47:24.866Z,1007.19
2017-03-03T05:48:36.391Z,1007.21
2017-03-03T05:49:47.954Z,1007.19
2017-03-03T05:50:59.434Z,1007.19
2017-03-03T05:52:10.931Z,1007.17
2017-03-03T05:53:22.420Z,1007.13
2017-03-03T05:54:33.922Z,1007.13
2017-03-03T05:55:45.472Z,1007.13
2017-03-03T05:56:56.958Z,1007.17
2017-03-03T05:58:08.478Z,1007.17
2017-03-03T05:59:19.964Z,1007.17
2017-03-03T06:00:31.452Z,1007.19
2017-03-03T06:01:43.011Z,1007.2
2017-03-03T06:02:54.518Z,1007.16
2017-03-03T06:04:06.416Z,1007.15
2017-03-03T06:05:17.890Z,1007.12
2017-03-03T06:06:29.393Z,1007.11
2017-03-03T06:07:40.936Z,1007.06
2017-03-03T06:08:52.630Z,1007.07
2017-03-03T06:10:04.104Z,1007.05
2017-03-03T06:11:15.599Z,1007.1
2017-03-03T06:12:27.103Z,1007.06
2017-03-03T06:13:38.693Z,1007.07
2017-03-03T06:14:50.225Z,1007.03
2017-03-03T06:16:01.734Z,1006.98
2017-03-03T06:17:13.239Z,1006.98
2017-03-03T06:18:24.752Z,1006.95
2017-03-03T06:19:36.303Z,1006.92
2017-03-03T06:20:47.812Z,1006.92
2017-03-03T06:21:59.297Z,1006.93
2017-03-03T06:23:10.803Z,1006.87
2017-03-03T06:24:22.512Z,1006.79
2017-03-03T06:25:34.055Z,1006.87
2017-03-03T06:26:45.554Z,1006.85
2017-03-03T06:27:57.059Z,1006.85
2017-03-03T06:29:08.557Z,1006.85
2017-03-03T06:30:20.077Z,1006.87
2017-03-03T06:31:31.603Z,1006.85
2017-03-03T06:32:43.105Z,1006.88
2017-03-03T06:33:54.593Z,1006.91
2017-03-03T06:35:06.087Z,1006.91
2017-03-03T06:36:17.758Z,1006.88
2017-03-03T06:37:29.296Z,1006.87
2017-03-03T06:38:40.799Z,1006.86
2017-03-03T06:39:52.303Z,1006.83
2017-03-03T06:41:03.802Z,1006.8
2017-03-03T06:42:15.299Z,1006.84
2017-03-03T06:43:27.038Z,1006.84
2017-03-03T06:44:38.737Z,1006.85
2017-03-03T06:45:50.237Z,1006.88
2017-03-03T06:47:01.741Z,1006.89
2017-03-03T06:48:13.243Z,1006.88
2017-03-03T06:49:25.006Z,1006.9
2017-03-03T06:50:36.513Z,1006.91
2017-03-03T06:51:48.035Z,1006.89
2017-03-03T06:52:59.529Z,1006.89
2017-03-03T06:54:11.073Z,1006.86
2017-03-03T06:55:22.627Z,1006.86
2017-03-03T06:56:34.143Z,1006.88
2017-03-03T06:57:45.636Z,1006.86
2017-03-03T06:58:57.142Z,1006.85
2017-03-03T07:00:08.860Z,1006.85
2017-03-03T07:01:20.813Z,1006.8
2017-03-03T07:02:32.312Z,1006.81
2017-03-03T07:03:43.826Z,1006.8
2017-03-03T07:04:55.294Z,1006.84
2017-03-03T07:06:06.770Z,1006.9
2017-03-03T07:07:18.291Z,1006.87
2017-03-03T07:08:29.782Z,1006.95
2017-03-03T07:09:41.271Z,1006.94
2017-03-03T07:10:52.771Z,1006.96
2017-03-03T07:12:04.278Z,1006.96
2017-03-03T07:13:16.027Z,1006.95
2017-03-03T07:14:27.541Z,1006.92
2017-03-03T07:15:39.046Z,1006.94
2017-03-03T07:16:50.756Z,1006.94
2017-03-03T07:18:02.245Z,1006.9
2017-03-03T07:19:13.798Z,1006.9
2017-03-03T07:20:25.319Z,1006.91
2017-03-03T07:21:37.038Z,1006.87
2017-03-03T07:22:48.510Z,1006.9
2017-03-03T07:24:00.034Z,1006.86
2017-03-03T07:25:11.540Z,1006.88
2017-03-03T07:26:23.018Z,1006.92
2017-03-03T07:27:34.951Z,1006.95
2017-03-03T07:28:46.448Z,1006.98
2017-03-03T07:29:58.005Z,1007.04
2017-03-03T07:31:09.520Z,1007.06
2017-03-03T07:32:21.007Z,1007.08
2017-03-03T07:33:32.518Z,1007.05
2017-03-03T07:34:44.031Z,1006.97
2017-03-03T07:35:55.587Z,1006.96
2017-03-03T07:37:07.284Z,1006.89
2017-03-03T07:38:19.011Z,1006.79
2017-03-03T07:39:30.521Z,1006.78
2017-03-03T07:40:42.228Z,1006.82
2017-03-03T07:41:53.761Z,1006.89
2017-03-03T07:43:05.272Z,1006.91
2017-03-03T07:44:16.771Z,1006.93
2017-03-03T07:45:28.266Z,1006.96
2017-03-03T07:46:39.786Z,1007.01
2017-03-03T07:47:51.334Z,1006.99
2017-03-03T07:49:03.035Z,1007.03
2017-03-03T07:50:14.727Z,1007.01
2017-03-03T07:51:26.224Z,1007.04
2017-03-03T07:52:37.733Z,1007.07
2017-03-03T07:53:49.289Z,1007.06
2017-03-03T07:55:00.964Z,1007.07
2017-03-03T07:56:12.442Z,1007.06
2017-03-03T07:57:23.946Z,1007.06
2017-03-03T07:58:35.451Z,1007.02
2017-03-03T07:59:47.224Z,1007.01
2017-03-03T08:00:58.723Z,1007.03
2017-03-03T08:02:10.222Z,1007.05
2017-03-03T08:03:21.740Z,1007.04
2017-03-03T08:04:33.256Z,1007.03
2017-03-03T08:05:44.803Z,1007.06
2017-03-03T08:06:56.287Z,1007.01
2017-03-03T08:08:07.822Z,1006.96
2017-03-03T08:09:19.513Z,1006.97
2017-03-03T08:10:31.021Z,1007
2017-03-03T08:11:42.592Z,1006.97
2017-03-03T08:12:54.102Z,1006.93
2017-03-03T08:14:05.800Z,1006.95
2017-03-03T08:15:17.297Z,1006.87
2017-03-03T08:16:28.817Z,1006.89
2017-03-03T08:17:40.377Z,1006.89
2017-03-03T08:18:51.894Z,1006.95
2017-03-03T08:20:03.424Z,1006.93
2017-03-03T08:21:14.913Z,1006.96
2017-03-03T08:22:26.654Z,1006.93
2017-03-03T08:23:38.227Z,1006.92
2017-03-03T08:24:49.737Z,1006.91
2017-03-03T08:26:01.248Z,1006.86
2017-03-03T08:27:12.747Z,1006.84
2017-03-03T08:28:24.462Z,1006.87
2017-03-03T08:29:36.017Z,1006.84
2017-03-03T08:30:47.534Z,1006.82
2017-03-03T08:31:59.040Z,1006.8
2017-03-03T08:33:10.555Z,1006.78
2017-03-03T08:34:22.273Z,1006.79
2017-03-03T08:35:34.023Z,1006.82
2017-03-03T08:36:45.536Z,1006.72
2017-03-03T08:37:57.273Z,1006.83
2017-03-03T08:39:08.785Z,1006.83
2017-03-03T08:40:20.320Z,1006.78
2017-03-03T08:41:31.907Z,1006.77
2017-03-03T08:42:43.636Z,1006.82
2017-03-03T08:43:55.152Z,1006.76
2017-03-03T08:45:06.696Z,1006.71
2017-03-03T08:46:18.200Z,1006.69
2017-03-03T08:47:29.791Z,1006.65
2017-03-03T08:48:41.312Z,1006.67
2017-03-03T08:49:52.822Z,1006.61
2017-03-03T08:51:04.370Z,1006.62
2017-03-03T08:52:15.885Z,1006.62
2017-03-03T08:53:27.425Z,1006.58
2017-03-03T08:54:38.931Z,1006.53
2017-03-03T08:55:50.453Z,1006.49
2017-03-03T08:57:02.186Z,1006.46
2017-03-03T08:58:13.730Z,1006.42
2017-03-03T08:59:25.306Z,1006.42
2017-03-03T09:00:36.820Z,1006.39
2017-03-03T09:01:48.351Z,1006.34
2017-03-03T09:02:59.898Z,1006.35
2017-03-03T09:04:11.421Z,1006.31
2017-03-03T09:05:23.396Z,1006.32
2017-03-03T09:06:34.912Z,1006.24
2017-03-03T09:07:46.431Z,1006.29
2017-03-03T09:08:57.940Z,1006.18
2017-03-03T09:10:09.447Z,1006.17
2017-03-03T09:11:21.014Z,1006.16
2017-03-03T09:12:32.535Z,1006.13
2017-03-03T09:13:44.038Z,1006.15
2017-03-03T09:14:55.573Z,1006.12
2017-03-03T09:16:07.077Z,1006.12
2017-03-03T09:17:18.659Z,1006.13
2017-03-03T09:18:30.167Z,1006.13
2017-03-03T09:19:41.697Z,1006.09
2017-03-03T09:20:53.220Z,1006.12
2017-03-03T09:22:04.726Z,1006.1
2017-03-03T09:23:16.432Z,1006.06
2017-03-03T09:24:27.945Z,1006.02
2017-03-03T09:25:39.463Z,1006.01
2017-03-03T09:26:50.983Z,1005.91
2017-03-03T09:28:02.494Z,1005.9
2017-03-03T09:29:14.054Z,1005.86
2017-03-03T09:30:25.558Z,1005.88
2017-03-03T09:31:37.061Z,1005.88
2017-03-03T09:32:48.550Z,1005.86
2017-03-03T09:34:00.287Z,1005.87
2017-03-03T09:35:11.846Z,1005.88
2017-03-03T09:36:23.367Z,1005.84
2017-03-03T09:37:34.864Z,1005.81
2017-03-03T09:38:46.352Z,1005.77
2017-03-03T09:39:57.853Z,1005.81
2017-03-03T09:41:09.429Z,1005.82
2017-03-03T09:42:20.930Z,1005.7
2017-03-03T09:43:32.447Z,1005.68
2017-03-03T09:44:43.936Z,1005.71
2017-03-03T09:45:55.474Z,1005.65
2017-03-03T09:47:07.060Z,1005.63
2017-03-03T09:48:18.594Z,1005.64
2017-03-03T09:49:30.098Z,1005.6
2017-03-03T09:50:41.657Z,1005.63
2017-03-03T09:51:53.183Z,1005.6
2017-03-03T09:53:04.752Z,1005.53
2017-03-03T09:54:16.513Z,1005.48
2017-03-03T09:55:28.033Z,1005.45
2017-03-03T09:56:39.543Z,1005.38
2017-03-03T09:57:51.053Z,1005.38
2017-03-03T09:59:02.622Z,1005.34
2017-03-03T10:00:14.126Z,1005.32
2017-03-03T10:01:25.614Z,1005.31
2017-03-03T10:02:37.161Z,1005.26
2017-03-03T10:03:48.880Z,1005.25
2017-03-03T10:05:00.418Z,1005.19
2017-03-03T10:06:11.955Z,1005.19
2017-03-03T10:07:23.666Z,1005.17
2017-03-03T10:08:35.398Z,1005.18
2017-03-03T10:09:47.099Z,1005.13
2017-03-03T10:10:58.661Z,1005.08
2017-03-03T10:12:10.198Z,1005.12
2017-03-03T10:13:21.713Z,1005.09
2017-03-03T10:14:33.247Z,1005.05
2017-03-03T10:15:44.770Z,1005.07
2017-03-03T10:16:56.331Z,1005.05
2017-03-03T10:18:08.017Z,1005.03
2017-03-03T10:19:19.544Z,1004.95
2017-03-03T10:20:31.065Z,1004.94
2017-03-03T10:21:42.568Z,1004.93
2017-03-03T10:22:54.153Z,1004.91
2017-03-03T10:24:05.673Z,1004.88
2017-03-03T10:25:17.181Z,1004.89
2017-03-03T10:26:28.692Z,1004.92
2017-03-03T10:27:40.203Z,1004.92
2017-03-03T10:28:51.755Z,1004.96
2017-03-03T10:30:03.265Z,1005.03
2017-03-03T10:31:14.781Z,1005.02
2017-03-03T10:32:26.277Z,1004.89
2017-03-03T10:33:37.981Z,1004.79
2017-03-03T10:34:49.546Z,1004.74
2017-03-03T10:36:01.061Z,1004.68
2017-03-03T10:37:12.577Z,1004.64
2017-03-03T10:38:24.055Z,1004.71
2017-03-03T10:39:35.554Z,1004.64
2017-03-03T10:40:47.116Z,1004.66
2017-03-03T10:41:58.625Z,1004.62
2017-03-03T10:43:10.149Z,1004.65
2017-03-03T10:44:21.662Z,1004.67
2017-03-03T10:45:33.173Z,1004.63
2017-03-03T10:46:44.725Z,1004.54
2017-03-03T10:47:56.237Z,1004.57
2017-03-03T10:49:07.752Z,1004.5
2017-03-03T10:50:19.265Z,1004.47
2017-03-03T10:51:30.768Z,1004.42
2017-03-03T10:52:42.338Z,1004.38
2017-03-03T10:53:53.842Z,1004.31
2017-03-03T10:55:05.371Z,1004.29
2017-03-03T10:56:16.904Z,1004.25
2017-03-03T10:57:28.644Z,1004.22
2017-03-03T10:58:40.182Z,1004.2
2017-03-03T10:59:51.752Z,1004.24
2017-03-03T11:01:03.290Z,1004.21
2017-03-03T11:02:14.798Z,1004.16
2017-03-03T11:03:26.361Z,1004.11
2017-03-03T11:04:37.848Z,1004.09
2017-03-03T11:05:49.375Z,1004.06
2017-03-03T11:07:00.910Z,1004.04
2017-03-03T11:08:12.428Z,1003.98
2017-03-03T11:09:23.962Z,1003.94
2017-03-03T11:10:35.664Z,1003.92
2017-03-03T11:11:47.176Z,1003.83
2017-03-03T11:12:58.895Z,1003.82
2017-03-03T11:14:10.412Z,1003.81
2017-03-03T11:15:22.236Z,1003.76
2017-03-03T11:16:33.758Z,1003.74
2017-03-03T11:17:45.272Z,1003.7
2017-03-03T11:18:56.991Z,1003.66
2017-03-03T11:20:08.520Z,1003.62
2017-03-03T11:21:20.075Z,1003.6
2017-03-03T11:22:31.607Z,1003.54
2017-03-03T11:23:43.117Z,1003.58
2017-03-03T11:24:54.635Z,1003.53
2017-03-03T11:26:06.162Z,1003.49
2017-03-03T11:27:17.711Z,1003.42
2017-03-03T11:28:29.216Z,1003.44
2017-03-03T11:29:40.745Z,1003.47
2017-03-03T11:30:52.275Z,1003.49
2017-03-03T11:32:03.780Z,1003.44
2017-03-03T11:33:15.361Z,1003.47
2017-03-03T11:34:26.930Z,1003.42
2017-03-03T11:35:38.442Z,1003.37
2017-03-03T11:36:49.964Z,1003.36
2017-03-03T11:38:01.455Z,1003.37
2017-03-03T11:39:13.034Z,1003.32
2017-03-03T11:40:24.552Z,1003.33
2017-03-03T11:41:36.095Z,1003.23
2017-03-03T11:42:47.603Z,1003.29
2017-03-03T11:43:59.108Z,1003.24
2017-03-03T11:45:11.128Z,1003.19
2017-03-03T11:46:22.625Z,1003.23
2017-03-03T11:47:34.323Z,1003.25
2017-03-03T11:48:45.839Z,1003.22
2017-03-03T11:49:57.339Z,1003.13
2017-03-03T11:51:09.090Z,1003.15
2017-03-03T11:52:20.607Z,1003.13
2017-03-03T11:53:32.120Z,1003.12
2017-03-03T11:54:43.613Z,1003.02
2017-03-03T11:55:55.121Z,1003.06
2017-03-03T11:57:06.699Z,1003.01
2017-03-03T11:58:18.388Z,1002.94
2017-03-03T11:59:30.094Z,1002.95
2017-03-03T12:00:41.643Z,1002.89
2017-03-03T12:01:53.370Z,1002.82
2017-03-03T12:03:05.169Z,1002.76
2017-03-03T12:04:16.671Z,1002.7
2017-03-03T12:05:28.175Z,1002.71
2017-03-03T12:06:39.708Z,1002.6
2017-03-03T12:07:51.222Z,1002.56
2017-03-03T12:09:02.807Z,1002.48
2017-03-03T12:10:14.323Z,1002.48
2017-03-03T12:11:25.848Z,1002.48
2017-03-03T12:12:37.353Z,1002.47
2017-03-03T12:13:48.873Z,1002.5
2017-03-03T12:15:00.690Z,1002.54
2017-03-03T12:16:12.167Z,1002.54
2017-03-03T12:17:23.877Z,1002.57
2017-03-03T12:18:35.384Z,1002.59
2017-03-03T12:19:46.890Z,1002.54
2017-03-03T12:20:58.461Z,1002.55
2017-03-03T12:22:10.376Z,1002.55
2017-03-03T12:23:21.873Z,1002.57
2017-03-03T12:24:33.377Z,1002.47
2017-03-03T12:25:44.894Z,1002.38
2017-03-03T12:26:56.452Z,1002.28
2017-03-03T12:28:07.958Z,1002.22
2017-03-03T12:29:19.479Z,1002.14
2017-03-03T12:30:30.989Z,1002.09
2017-03-03T12:31:42.493Z,1001.99
2017-03-03T12:32:54.311Z,1002
2017-03-03T12:34:05.844Z,1001.94
2017-03-03T12:35:17.343Z,1001.96
2017-03-03T12:36:28.842Z,1001.98
2017-03-03T12:37:40.337Z,1001.95
2017-03-03T12:38:51.899Z,1001.96
2017-03-03T12:40:03.408Z,1001.91
2017-03-03T12:41:15.107Z,1001.88
2017-03-03T12:42:26.621Z,1001.86
2017-03-03T12:43:38.123Z,1001.84
2017-03-03T12:44:49.683Z,1001.81
2017-03-03T12:46:01.201Z,1001.75
2017-03-03T12:47:12.914Z,1001.76
2017-03-03T12:48:24.417Z,1001.7
2017-03-03T12:49:35.939Z,1001.72
2017-03-03T12:50:47.719Z,1001.64
2017-03-03T12:51:59.243Z,1001.67
2017-03-03T12:53:10.952Z,1001.66
2017-03-03T12:54:22.476Z,1001.66
2017-03-03T12:55:33.992Z,1001.64
2017-03-03T12:56:45.748Z,1001.63
2017-03-03T12:57:57.264Z,1001.58
2017-03-03T12:59:08.818Z,1001.57
2017-03-03T13:00:20.564Z,1001.52
2017-03-03T13:01:32.083Z,1001.58
2017-03-03T13:02:43.663Z,1001.6
2017-03-03T13:03:55.184Z,1001.56
2017-03-03T13:05:06.716Z,1001.51
2017-03-03T13:06:18.215Z,1001.54
2017-03-03T13:07:29.954Z,1001.53
2017-03-03T13:08:41.715Z,1001.53
2017-03-03T13:09:53.214Z,1001.54
2017-03-03T13:11:04.725Z,1001.57
2017-03-03T13:12:16.231Z,1001.52
2017-03-03T13:13:27.786Z,1001.5
2017-03-03T13:14:39.340Z,1001.47
2017-03-03T13:15:50.858Z,1001.44
2017-03-03T13:17:02.371Z,1001.45
2017-03-03T13:18:13.882Z,1001.41
2017-03-03T13:19:25.409Z,1001.39
2017-03-03T13:20:36.965Z,1001.36
2017-03-03T13:21:48.512Z,1001.34
2017-03-03T13:22:59.999Z,1001.29
2017-03-03T13:24:11.525Z,1001.3
2017-03-03T13:25:23.028Z,1001.32
2017-03-03T13:26:34.793Z,1001.3
2017-03-03T13:27:46.325Z,1001.27
2017-03-03T13:28:57.839Z,1001.31
2017-03-03T13:30:09.562Z,1001.23
2017-03-03T13:31:21.091Z,1001.22
2017-03-03T13:32:32.659Z,1001.2
2017-03-03T13:33:44.161Z,1001.18
2017-03-03T13:34:55.686Z,1001.08
2017-03-03T13:36:07.415Z,1001.09
2017-03-03T13:37:18.917Z,1001.05
2017-03-03T13:38:30.460Z,1001.13
2017-03-03T13:39:41.950Z,1001.1
2017-03-03T13:40:53.641Z,1001.11
2017-03-03T13:42:05.402Z,1001.1
2017-03-03T13:43:16.902Z,1001.11
2017-03-03T13:44:28.460Z,1001.08
2017-03-03T13:45:39.971Z,1001.09
2017-03-03T13:46:51.494Z,1001.05
2017-03-03T13:48:03.002Z,1001.01
2017-03-03T13:49:14.559Z,1000.97
2017-03-03T13:50:26.090Z,1000.97
2017-03-03T13:51:37.588Z,1000.91
2017-03-03T13:52:49.119Z,1000.86
2017-03-03T13:54:00.633Z,1000.86
2017-03-03T13:55:12.152Z,1000.88
2017-03-03T13:56:23.909Z,1000.83
2017-03-03T13:57:35.415Z,1000.82
2017-03-03T13:58:46.927Z,1000.77
2017-03-03T13:59:58.429Z,1000.77
2017-03-03T14:01:10.346Z,1000.71
2017-03-03T14:02:22.128Z,1000.7
2017-03-03T14:03:33.632Z,1000.67
2017-03-03T14:04:45.149Z,1000.68
2017-03-03T14:05:57.231Z,1000.63
2017-03-03T14:07:08.718Z,1000.58
2017-03-03T14:08:20.463Z,1000.62
2017-03-03T14:09:31.969Z,1000.59
2017-03-03T14:10:43.493Z,1000.54
2017-03-03T14:11:55.016Z,1000.56
2017-03-03T14:13:06.528Z,1000.5
2017-03-03T14:14:18.083Z,1000.49
2017-03-03T14:15:29.613Z,1000.5
2017-03-03T14:16:41.136Z,1000.4
2017-03-03T14:17:52.672Z,1000.4
2017-03-03T14:19:04.389Z,1000.33
2017-03-03T14:20:16.146Z,1000.27
2017-03-03T14:21:27.637Z,1000.25
2017-03-03T14:22:39.346Z,1000.22
2017-03-03T14:23:51.048Z,1000.2
2017-03-03T14:25:02.577Z,1000.25
2017-03-03T14:26:14.153Z,1000.16
2017-03-03T14:27:25.666Z,1000.12
2017-03-03T14:28:37.164Z,1000.15